createdAt,value
2022-10-29T00:01:02.696Z,6.35
2022-10-29T00:03:30.240Z,6.72
2022-10-29T00:06:06.699Z,6.03
2022-10-29T00:08:36.774Z,6.58
2022-10-29T00:11:10.923Z,7.15
2022-10-29T00:13:42.594Z,7.05
2022-10-29T00:16:13.618Z,6.28
2022-10-29T00:18:41.382Z,6.33
2022-10-29T00:21:15.409Z,6.45
2022-10-29T00:23:46.558Z,6.10
2022-10-29T00:26:14.936Z,6.28
2022-10-29T00:28:42.843Z,7.45
2022-10-29T00:31:14.001Z,6.90
2022-10-29T00:33:41.715Z,7.30
2022-10-29T00:36:12.577Z,7.30
2022-10-29T00:38:42.278Z,7.40
2022-10-29T00:41:13.404Z,7.20
2022-10-29T00:43:51.006Z,6.65
2022-10-29T00:46:25.390Z,6.83
2022-10-29T00:48:56.283Z,7.00
2022-10-29T00:51:23.806Z,7.10
2022-10-29T00:53:55.194Z,7.87
2022-10-29T00:56:25.785Z,9.00
2022-10-29T00:58:53.832Z,8.28
2022-10-29T01:01:21.878Z,9.98
2022-10-29T01:03:50.985Z,9.98
2022-10-29T01:06:19.267Z,10.50
2022-10-29T01:08:47.092Z,9.98
2022-10-29T01:11:54.618Z,10.53
2022-10-29T01:14:35.429Z,10.90
2022-10-29T01:17:12.922Z,12.00
2022-10-29T01:20:05.356Z,10.20
2022-10-29T01:23:00.114Z,10.93
2022-10-29T01:25:52.877Z,10.17
2022-10-29T01:28:27.460Z,9.20
2022-10-29T01:31:07.620Z,9.40
2022-10-29T01:33:54.521Z,11.90
2022-10-29T01:36:25.702Z,12.40
2022-10-29T01:39:22.523Z,12.60
2022-10-29T01:42:09.215Z,11.43
2022-10-29T01:44:46.966Z,11.83
2022-10-29T01:47:21.878Z,13.03
2022-10-29T01:49:53.217Z,11.57
2022-10-29T01:52:22.842Z,13.15
2022-10-29T01:54:50.683Z,12.47
2022-10-29T01:57:30.372Z,11.68
2022-10-29T02:00:13.749Z,12.05
2022-10-29T02:03:02.717Z,12.70
2022-10-29T02:05:40.029Z,10.45
2022-10-29T02:08:28.491Z,11.20
2022-10-29T02:11:19.153Z,10.35
2022-10-29T02:13:56.540Z,9.53
2022-10-29T02:16:27.408Z,9.40
2022-10-29T02:18:55.157Z,8.70
2022-10-29T02:21:22.726Z,8.60
2022-10-29T02:23:59.860Z,8.25
2022-10-29T02:26:28.111Z,8.68
2022-10-29T02:28:57.067Z,8.50
2022-10-29T02:31:25.091Z,9.20
2022-10-29T02:36:53.750Z,7.67
2022-10-29T02:39:27.439Z,7.60
2022-10-29T02:41:54.772Z,8.03
2022-10-29T02:44:22.627Z,9.05
2022-10-29T02:46:50.531Z,7.78
2022-10-29T02:49:24.258Z,8.07
2022-10-29T02:51:52.581Z,8.65
2022-10-29T02:54:20.167Z,9.30
2022-10-29T02:56:48.031Z,10.63
2022-10-29T02:59:15.747Z,9.55
2022-10-29T03:01:43.556Z,10.03
2022-10-29T03:04:11.583Z,9.10
2022-10-29T03:06:39.330Z,9.53
2022-10-29T03:09:06.919Z,10.32
2022-10-29T03:11:35.010Z,11.40
2022-10-29T03:14:07.943Z,12.13
2022-10-29T03:16:35.511Z,13.30
2022-10-29T03:19:03.583Z,13.58
2022-10-29T03:21:31.003Z,12.80
2022-10-29T03:23:58.914Z,13.68
2022-10-29T03:26:27.420Z,15.13
2022-10-29T03:28:56.395Z,13.03
2022-10-29T03:31:26.170Z,12.47
2022-10-29T03:33:57.087Z,12.10
2022-10-29T03:36:24.646Z,12.50
2022-10-29T03:38:51.954Z,12.47
2022-10-29T03:41:19.668Z,12.55
2022-10-29T03:43:47.728Z,12.98
2022-10-29T03:46:15.284Z,12.98
2022-10-29T03:48:42.567Z,14.25
2022-10-29T03:51:11.112Z,12.33
2022-10-29T03:53:38.846Z,11.55
2022-10-29T03:56:07.204Z,12.35
2022-10-29T03:58:37.556Z,11.38
2022-10-29T04:01:09.090Z,10.63
2022-10-29T04:03:38.628Z,10.98
2022-10-29T04:06:14.410Z,11.08
2022-10-29T04:08:42.563Z,12.70
2022-10-29T04:11:12.499Z,12.03
2022-10-29T04:13:40.447Z,12.53
2022-10-29T04:16:08.901Z,12.10
2022-10-29T04:18:36.580Z,11.88
2022-10-29T04:28:36.852Z,13.28
2022-10-29T04:28:42.954Z,12.80
2022-10-29T04:31:07.806Z,12.37
2022-10-29T04:33:35.838Z,12.60
2022-10-29T04:36:04.066Z,12.70
2022-10-29T04:38:32.446Z,13.65
2022-10-29T04:41:01.319Z,13.65
2022-10-29T04:43:30.472Z,11.65
2022-10-29T04:45:59.460Z,10.32
2022-10-29T04:48:28.617Z,10.25
2022-10-29T04:50:56.357Z,9.28
2022-10-29T04:53:24.804Z,9.83
2022-10-29T04:55:52.253Z,9.90
2022-10-29T04:58:21.607Z,10.80
2022-10-29T05:00:49.378Z,11.30
2022-10-29T05:03:17.438Z,11.60
2022-10-29T05:05:45.022Z,15.48
2022-10-29T05:08:13.102Z,11.40
2022-10-29T05:10:40.675Z,10.15
2022-10-29T05:13:12.634Z,10.18
2022-10-29T05:15:42.415Z,10.20
2022-10-29T05:18:10.618Z,11.12
2022-10-29T05:20:38.345Z,10.35
2022-10-29T05:23:09.330Z,10.95
2022-10-29T05:25:39.397Z,11.50
2022-10-29T05:28:13.700Z,10.95
2022-10-29T05:30:41.855Z,10.10
2022-10-29T05:33:12.079Z,10.05
2022-10-29T05:35:40.048Z,10.38
2022-10-29T05:38:07.354Z,10.32
2022-10-29T05:40:36.113Z,9.30
2022-10-29T05:43:04.154Z,9.78
2022-10-29T05:45:34.463Z,9.65
2022-10-29T05:48:03.582Z,10.05
2022-10-29T05:50:35.339Z,11.60
2022-10-29T05:53:06.803Z,11.40
2022-10-29T05:55:35.982Z,10.40
2022-10-29T05:58:06.836Z,10.55
2022-10-29T06:00:38.075Z,11.10
2022-10-29T06:03:14.217Z,10.50
2022-10-29T06:05:42.084Z,11.78
2022-10-29T06:08:09.864Z,11.28
2022-10-29T06:10:37.831Z,11.33
2022-10-29T06:13:14.083Z,12.07
2022-10-29T06:15:41.767Z,13.93
2022-10-29T06:18:09.482Z,15.88
2022-10-29T06:20:38.540Z,16.20
2022-10-29T06:23:09.374Z,14.00
2022-10-29T06:25:37.967Z,15.10
2022-10-29T06:28:10.251Z,13.62
2022-10-29T06:30:38.316Z,13.72
2022-10-29T06:33:08.903Z,15.30
2022-10-29T06:35:37.517Z,13.68
2022-10-29T06:38:10.937Z,14.40
2022-10-29T06:40:35.944Z,14.85
2022-10-29T06:43:06.259Z,14.13
2022-10-29T06:45:34.480Z,16.67
2022-10-29T06:48:03.400Z,16.02
2022-10-29T06:50:31.970Z,17.25
2022-10-29T06:53:02.522Z,17.92
2022-10-29T06:55:30.982Z,18.35
2022-10-29T06:58:01.864Z,18.20
2022-10-29T07:00:43.979Z,18.15
2022-10-29T07:03:17.153Z,19.80
2022-10-29T07:05:45.606Z,18.32
2022-10-29T07:08:13.344Z,18.45
2022-10-29T07:10:55.991Z,18.62
2022-10-29T07:13:23.747Z,16.25
2022-10-29T07:15:52.122Z,15.72
2022-10-29T07:18:19.650Z,16.27
2022-10-29T07:20:48.433Z,15.75
2022-10-29T07:23:16.318Z,15.50
2022-10-29T07:25:44.218Z,14.03
2022-10-29T07:28:16.344Z,15.00
2022-10-29T07:30:45.203Z,14.90
2022-10-29T07:33:14.004Z,15.03
2022-10-29T07:35:41.854Z,14.87
2022-10-29T07:38:11.703Z,14.33
2022-10-29T07:40:40.554Z,14.58
2022-10-29T07:43:09.389Z,13.30
2022-10-29T07:45:37.206Z,12.68
2022-10-29T07:48:09.880Z,13.08
2022-10-29T07:50:38.885Z,12.47
2022-10-29T07:53:07.714Z,11.97
2022-10-29T07:55:35.880Z,11.80
2022-10-29T07:58:07.327Z,13.00
2022-10-29T08:00:37.741Z,12.45
2022-10-29T08:03:07.910Z,12.05
2022-10-29T08:05:37.495Z,13.18
2022-10-29T08:08:06.526Z,13.50
2022-10-29T08:10:35.949Z,11.80
2022-10-29T08:13:06.844Z,12.25
2022-10-29T08:15:35.142Z,12.30
2022-10-29T08:18:05.961Z,12.88
2022-10-29T08:20:34.467Z,12.53
2022-10-29T08:23:22.443Z,13.18
2022-10-29T08:25:51.105Z,15.65
2022-10-29T08:28:25.742Z,14.65
2022-10-29T08:31:08.187Z,14.00
2022-10-29T08:33:35.880Z,12.85
2022-10-29T08:36:04.267Z,14.03
2022-10-29T08:38:31.752Z,14.00
2022-10-29T08:41:03.549Z,15.23
2022-10-29T08:43:46.950Z,14.53
2022-10-29T08:46:21.702Z,15.55
2022-10-29T08:48:54.339Z,15.30
2022-10-29T08:51:36.034Z,14.40
2022-10-29T08:54:29.356Z,15.43
2022-10-29T08:56:37.238Z,15.32
2022-10-29T08:59:20.968Z,16.20
2022-10-29T09:01:53.924Z,15.45
2022-10-29T09:04:34.247Z,14.47
2022-10-29T09:07:23.603Z,15.48
2022-10-29T09:10:10.968Z,16.45
2022-10-29T09:12:51.390Z,16.35
2022-10-29T09:15:39.070Z,15.35
2022-10-29T09:18:16.451Z,15.18
2022-10-29T09:20:50.881Z,15.55
2022-10-29T09:23:26.203Z,16.00
2022-10-29T09:29:25.102Z,15.38
2022-10-29T09:35:19.579Z,14.98
2022-10-29T09:38:01.585Z,16.32
2022-10-29T09:40:35.795Z,15.58
2022-10-29T09:43:19.242Z,16.87
2022-10-29T09:45:50.874Z,15.48
2022-10-29T09:48:37.571Z,15.58
2022-10-29T09:51:27.077Z,16.48
2022-10-29T09:53:55.700Z,16.57
2022-10-29T09:56:23.636Z,16.45
2022-10-29T09:58:56.349Z,16.70
2022-10-29T10:01:27.412Z,16.32
2022-10-29T10:10:03.544Z,16.07
2022-10-29T10:12:40.925Z,16.32
2022-10-29T10:15:24.032Z,15.08
2022-10-29T10:18:03.554Z,16.70
2022-10-29T10:20:39.895Z,17.17
2022-10-29T10:23:30.650Z,17.37
2022-10-29T10:26:03.775Z,16.75
2022-10-29T10:28:31.722Z,19.60
2022-10-29T10:31:13.803Z,18.67
2022-10-29T10:33:51.051Z,17.80
2022-10-29T10:36:21.284Z,17.27
2022-10-29T10:38:52.093Z,18.30
2022-10-29T10:41:25.980Z,17.90
2022-10-29T10:43:57.246Z,18.20
2022-10-29T10:46:31.766Z,17.35
2022-10-29T10:49:21.045Z,18.80
2022-10-29T10:51:58.047Z,18.00
2022-10-29T10:54:31.211Z,18.82
2022-10-29T10:57:02.623Z,19.07
2022-10-29T10:59:33.986Z,19.60
2022-10-29T11:02:04.425Z,19.05
2022-10-29T11:04:35.977Z,18.07
2022-10-29T11:07:07.156Z,18.75
2022-10-29T11:09:50.298Z,18.07
2022-10-29T11:12:24.742Z,19.90
2022-10-29T11:15:12.729Z,20.25
2022-10-29T11:17:54.425Z,19.85
2022-10-29T11:20:28.746Z,19.02
2022-10-29T11:23:19.673Z,18.85
2022-10-29T11:25:57.159Z,18.65
2022-10-29T11:28:36.904Z,19.87
2022-10-29T11:31:19.768Z,18.25
2022-10-29T11:34:17.722Z,19.62
2022-10-29T11:36:50.291Z,21.02
2022-10-29T11:39:24.643Z,20.02
2022-10-29T11:41:58.956Z,21.82
2022-10-29T11:44:28.026Z,20.02
2022-10-29T11:47:20.063Z,20.80
2022-10-29T11:50:07.754Z,20.48
2022-10-29T11:52:47.960Z,21.95
2022-10-29T11:55:22.632Z,20.80
2022-10-29T11:58:03.143Z,21.07
2022-10-29T12:00:37.431Z,21.27
2022-10-29T12:03:27.876Z,19.27
2022-10-29T12:06:07.933Z,20.48
2022-10-29T12:08:45.227Z,19.52
2022-10-29T12:11:23.334Z,18.85
2022-10-29T12:13:54.709Z,19.92
2022-10-29T12:16:41.083Z,20.55
2022-10-29T12:20:09.862Z,19.42
2022-10-29T12:23:11.976Z,17.17
2022-10-29T12:25:55.715Z,19.30
2022-10-29T12:28:52.486Z,19.82
2022-10-29T12:31:47.379Z,19.73
2022-10-29T12:34:38.558Z,17.05
2022-10-29T12:37:17.427Z,18.17
2022-10-29T12:39:49.187Z,19.15
2022-10-29T12:42:23.546Z,16.93
2022-10-29T12:45:16.026Z,16.73
2022-10-29T12:48:00.253Z,15.78
2022-10-29T12:50:47.265Z,17.37
2022-10-29T12:53:18.832Z,14.43
2022-10-29T12:55:48.231Z,14.07
2022-10-29T12:58:53.236Z,14.10
2022-10-29T13:01:57.371Z,14.98
2022-10-29T13:04:00.484Z,14.15
2022-10-29T13:06:45.856Z,13.00
2022-10-29T13:09:20.200Z,15.23
2022-10-29T13:11:56.874Z,13.88
2022-10-29T13:14:34.420Z,11.85
2022-10-29T13:17:05.851Z,11.53
2022-10-29T13:19:46.181Z,12.35
2022-10-29T13:22:20.786Z,11.88
2022-10-29T13:27:24.748Z,12.88
2022-10-29T13:30:12.654Z,12.93
2022-10-29T13:32:41.407Z,11.53
2022-10-29T13:35:24.230Z,11.88
2022-10-29T13:38:11.343Z,11.57
2022-10-29T13:40:41.185Z,12.25
2022-10-29T13:43:15.368Z,13.13
2022-10-29T13:45:49.366Z,11.15
2022-10-29T13:48:32.159Z,11.30
2022-10-29T13:51:02.934Z,10.15
2022-10-29T13:53:46.244Z,11.05
2022-10-29T13:56:21.467Z,11.12
2022-10-29T13:58:52.121Z,11.00
2022-10-29T14:01:23.663Z,11.00
2022-10-29T14:04:13.405Z,11.97
2022-10-29T14:06:42.276Z,10.58
2022-10-29T14:09:22.757Z,8.95
2022-10-29T14:12:03.116Z,12.35
2022-10-29T14:14:37.530Z,7.85
2022-10-29T14:17:16.074Z,8.38
2022-10-29T14:19:44.964Z,9.40
2022-10-29T14:22:25.235Z,7.40
2022-10-29T14:24:54.456Z,7.65
2022-10-29T14:27:22.340Z,7.25
2022-10-29T14:29:53.068Z,7.33
2022-10-29T14:32:22.769Z,7.10
2022-10-29T14:34:51.443Z,7.65
2022-10-29T14:37:38.310Z,6.70
2022-10-29T14:40:09.666Z,6.78
2022-10-29T14:42:40.587Z,6.42
2022-10-29T14:45:26.052Z,6.67
2022-10-29T14:47:59.754Z,6.33
2022-10-29T14:50:29.302Z,5.83
2022-10-29T14:53:00.800Z,6.92
2022-10-29T14:55:38.199Z,5.70
2022-10-29T14:58:10.988Z,5.00
2022-10-29T15:00:41.703Z,4.92
2022-10-29T15:03:13.415Z,4.55
2022-10-29T15:05:41.132Z,4.15
2022-10-29T15:08:14.974Z,4.20
2022-10-29T15:10:52.030Z,4.75
2022-10-29T15:13:31.623Z,3.95
2022-10-29T15:16:12.523Z,3.98
2022-10-29T15:18:40.356Z,3.37
2022-10-29T15:21:08.986Z,4.35
2022-10-29T15:23:45.232Z,3.40
2022-10-29T15:26:20.606Z,3.58
2022-10-29T15:28:51.119Z,3.90
2022-10-29T15:31:41.967Z,3.40
2022-10-29T15:34:12.694Z,4.15
2022-10-29T15:36:49.794Z,4.12
2022-10-29T15:39:30.438Z,4.65
2022-10-29T15:42:02.214Z,5.35
2022-10-29T15:44:39.242Z,6.22
2022-10-29T15:47:24.709Z,6.47
2022-10-29T15:49:52.401Z,6.83
2022-10-29T15:52:22.183Z,7.33
2022-10-29T15:54:49.999Z,7.25
2022-10-29T15:57:17.951Z,8.08
2022-10-29T15:59:45.800Z,7.08
2022-10-29T16:02:18.378Z,7.72
2022-10-29T16:04:46.359Z,7.15
2022-10-29T16:07:14.244Z,6.67
2022-10-29T16:09:45.823Z,6.92
2022-10-29T16:12:13.895Z,7.05
2022-10-29T16:14:42.327Z,6.92
2022-10-29T16:17:15.775Z,7.25
2022-10-29T16:19:45.463Z,6.83
2022-10-29T16:22:16.920Z,6.55
2022-10-29T16:24:45.398Z,6.80
2022-10-29T16:27:16.180Z,7.67
2022-10-29T16:29:43.680Z,6.78
2022-10-29T16:32:16.730Z,6.65
2022-10-29T16:34:45.661Z,6.85
2022-10-29T16:37:16.474Z,6.95
2022-10-29T16:39:44.917Z,5.60
2022-10-29T16:42:34.819Z,6.03
2022-10-29T16:45:03.084Z,9.38
2022-10-29T16:47:30.951Z,8.13
2022-10-29T16:49:58.942Z,6.45
2022-10-29T16:52:29.597Z,6.22
2022-10-29T16:54:56.121Z,6.67
2022-10-29T16:57:24.008Z,5.92
2022-10-29T17:00:04.885Z,6.00
2022-10-29T17:02:35.632Z,6.53
2022-10-29T17:05:03.375Z,6.05
2022-10-29T17:07:33.145Z,5.42
2022-10-29T17:10:01.188Z,6.97
2022-10-29T17:12:31.752Z,6.42
2022-10-29T17:15:00.386Z,7.55
2022-10-29T17:17:30.755Z,6.95
2022-10-29T17:19:58.731Z,8.15
2022-10-29T17:22:27.562Z,7.20
2022-10-29T17:24:58.495Z,6.95
2022-10-29T17:27:27.100Z,6.83
2022-10-29T17:29:54.688Z,8.35
2022-10-29T17:32:22.443Z,8.03
2022-10-29T17:34:50.057Z,8.88
2022-10-29T17:37:17.738Z,7.95
2022-10-29T17:39:45.282Z,8.60
2022-10-29T17:42:12.866Z,9.15
2022-10-29T17:44:40.378Z,9.05
2022-10-29T17:47:08.195Z,8.70
2022-10-29T17:49:36.234Z,8.38
2022-10-29T17:52:12.279Z,9.33
2022-10-29T17:54:39.988Z,8.30
2022-10-29T17:57:07.648Z,9.28
2022-10-29T17:59:35.390Z,9.38
2022-10-29T18:02:04.144Z,9.48
2022-10-29T18:04:31.866Z,8.53
2022-10-29T18:07:00.414Z,8.68
2022-10-29T18:09:30.030Z,8.68
2022-10-29T18:11:57.598Z,9.05
2022-10-29T18:14:25.201Z,8.93
2022-10-29T18:16:52.903Z,8.55
2022-10-29T18:19:20.903Z,7.75
2022-10-29T18:21:49.639Z,9.93
2022-10-29T18:24:18.321Z,7.62
2022-10-29T18:26:50.847Z,8.15
2022-10-29T18:29:18.532Z,8.20
2022-10-29T18:31:46.868Z,7.55
2022-10-29T18:34:16.152Z,6.80
2022-10-29T18:36:47.627Z,7.87
2022-10-29T18:39:15.300Z,7.60
2022-10-29T18:41:44.102Z,10.25
2022-10-29T18:44:11.591Z,10.58
2022-10-29T18:46:39.608Z,15.53
2022-10-29T18:49:07.956Z,8.03
2022-10-29T18:51:35.598Z,7.95
2022-10-29T18:54:06.288Z,7.53
2022-10-29T18:56:34.966Z,6.75
2022-10-29T18:59:03.043Z,6.47
2022-10-29T19:01:32.570Z,7.08
2022-10-29T19:04:02.602Z,6.53
2022-10-29T19:06:32.958Z,6.55
2022-10-29T19:09:07.911Z,7.17
2022-10-29T19:14:07.274Z,7.70
2022-10-29T19:16:36.124Z,6.87
2022-10-29T19:19:10.048Z,7.90
2022-10-29T19:21:39.012Z,5.83
2022-10-29T19:24:07.879Z,6.65
2022-10-29T19:26:37.031Z,7.20
2022-10-29T19:29:06.691Z,7.45
2022-10-29T19:31:36.065Z,40.67
2022-10-29T19:34:06.469Z,10.23
2022-10-29T19:36:36.417Z,7.25
2022-10-29T19:39:05.001Z,6.80
2022-10-29T19:41:33.696Z,6.85
2022-10-29T19:44:06.115Z,7.12
2022-10-29T19:46:33.623Z,7.05
2022-10-29T19:49:02.473Z,6.28
2022-10-29T19:51:30.964Z,7.10
2022-10-29T19:54:01.170Z,7.47
2022-10-29T19:56:29.458Z,7.15
2022-10-29T19:58:58.123Z,7.35
2022-10-29T20:01:26.508Z,7.60
2022-10-29T20:03:55.577Z,7.45
2022-10-29T20:06:24.620Z,6.42
2022-10-29T20:08:52.514Z,6.78
2022-10-29T20:11:39.739Z,7.05
2022-10-29T20:14:07.355Z,7.65
2022-10-29T20:16:35.148Z,6.92
2022-10-29T20:19:04.446Z,6.10
2022-10-29T20:21:32.069Z,6.90
2022-10-29T20:23:59.807Z,14.47
2022-10-29T20:26:27.841Z,8.75
2022-10-29T20:28:58.367Z,6.87
2022-10-29T20:31:32.177Z,30.92
2022-10-29T20:34:01.026Z,12.18
2022-10-29T20:36:32.000Z,7.58
2022-10-29T20:39:00.031Z,6.42
2022-10-29T20:41:30.849Z,7.12
2022-10-29T20:44:01.299Z,7.12
2022-10-29T20:46:29.472Z,7.28
2022-10-29T20:48:57.282Z,7.20
2022-10-29T20:51:25.335Z,5.95
2022-10-29T20:53:53.562Z,6.85
2022-10-29T20:56:22.942Z,8.20
2022-10-29T20:58:51.728Z,6.70
2022-10-29T21:01:21.268Z,7.12
2022-10-29T21:03:50.437Z,8.08
2022-10-29T21:06:19.038Z,7.05
2022-10-29T21:08:47.864Z,7.35
2022-10-29T21:11:16.946Z,7.10
2022-10-29T21:13:45.517Z,6.92
2022-10-29T21:16:24.526Z,6.53
2022-10-29T21:18:55.080Z,6.83
2022-10-29T21:21:23.903Z,8.15
2022-10-29T21:23:51.916Z,8.35
2022-10-29T21:26:21.601Z,7.60
2022-10-29T21:28:50.662Z,7.97
2022-10-29T21:31:19.179Z,7.70
2022-10-29T21:33:49.158Z,7.45
2022-10-29T21:36:16.830Z,9.30
2022-10-29T21:38:44.763Z,9.20
2022-10-29T21:41:12.825Z,8.58
2022-10-29T21:43:45.026Z,8.65
2022-10-29T21:46:12.629Z,10.00
2022-10-29T21:48:40.192Z,9.23
2022-10-29T21:51:11.873Z,8.93
2022-10-29T21:53:40.754Z,7.97
2022-10-29T21:56:11.611Z,7.67
2022-10-29T21:58:39.231Z,7.00
2022-10-29T22:01:13.998Z,7.95
2022-10-29T22:06:12.748Z,7.55
2022-10-29T22:08:43.180Z,7.55
2022-10-29T22:11:11.364Z,7.45
2022-10-29T22:13:39.102Z,7.70
2022-10-29T22:16:09.362Z,9.33
2022-10-29T22:18:38.013Z,7.90
2022-10-29T22:21:09.277Z,8.48
2022-10-29T22:23:38.335Z,8.73
2022-10-29T22:26:09.150Z,8.70
2022-10-29T22:28:40.247Z,9.28
2022-10-29T22:31:08.370Z,9.13
2022-10-29T22:33:37.637Z,8.48
2022-10-29T22:36:07.588Z,9.68
2022-10-29T22:38:35.309Z,8.60
2022-10-29T22:41:08.828Z,7.40
2022-10-29T22:43:36.510Z,7.90
2022-10-29T22:46:05.753Z,7.78
2022-10-29T22:48:33.351Z,8.48
2022-10-29T22:51:06.973Z,8.55
2022-10-29T22:53:35.915Z,7.85
2022-10-29T22:56:04.400Z,8.35
2022-10-29T22:58:32.068Z,7.83
2022-10-29T23:01:08.382Z,7.00
2022-10-29T23:03:37.384Z,8.45
2022-10-29T23:06:06.272Z,6.95
2022-10-29T23:08:33.921Z,8.25
2022-10-29T23:11:07.309Z,7.33
2022-10-29T23:13:35.965Z,7.20
2022-10-29T23:16:06.942Z,7.87
2022-10-29T23:18:34.826Z,8.38
2022-10-29T23:21:04.581Z,6.67
2022-10-29T23:23:34.295Z,6.67
2022-10-29T23:26:03.751Z,6.67
2022-10-29T23:28:37.100Z,6.22
2022-10-29T23:31:06.453Z,6.45
2022-10-29T23:33:34.248Z,6.87
2022-10-29T23:36:04.397Z,7.72
2022-10-29T23:38:32.802Z,8.18
2022-10-29T23:41:03.598Z,7.58
2022-10-29T23:43:31.401Z,7.50
2022-10-29T23:46:00.188Z,7.15
2022-10-29T23:48:27.847Z,7.47
2022-10-29T23:50:56.617Z,10.38
2022-10-29T23:53:25.667Z,9.15
2022-10-29T23:55:53.259Z,8.13
2022-10-29T23:58:21.413Z,7.53
